Terminal Aerodrome Forecast
Issued by NWS

Home | Current Version | Previous Version | Text Only | Print | Product List | Glossary On
Versions: 1 2 3 4 5 6 7 8 9 10 11 12
829
FTUS46 KMTR 271733
TAFSJC
TAF
KSJC 271733Z 2718/2818 32008KT P6SM FEW020
     FM271900 30012KT P6SM FEW020
     FM280400 29008KT P6SM SKC
     FM281300 16006KT P6SM SCT010=

USA.gov is the U.S. government's official web portal to all federal, state and local government web resources and services.